sensor_id;sensor_type;location;lat;lon;timestamp;P1;durP1;ratioP1;P2;durP2;ratioP2
20209;SDS011;10264;53.178;5.840;2022-09-09T00:01:54;17.73;;;13.33;;
20209;SDS011;10264;53.178;5.840;2022-09-09T00:04:42;13.67;;;11.40;;
20209;SDS011;10264;53.178;5.840;2022-09-09T00:15:34;18.27;;;13.43;;
20209;SDS011;10264;53.178;5.840;2022-09-09T00:23:37;17.87;;;13.23;;
20209;SDS011;10264;53.178;5.840;2022-09-09T00:26:18;15.40;;;12.93;;
20209;SDS011;10264;53.178;5.840;2022-09-09T00:31:38;15.57;;;12.40;;
20209;SDS011;10264;53.178;5.840;2022-09-09T00:34:12;16.37;;;13.63;;
20209;SDS011;10264;53.178;5.840;2022-09-09T00:36:48;21.33;;;12.30;;
20209;SDS011;10264;53.178;5.840;2022-09-09T00:39:38;14.07;;;12.00;;
20209;SDS011;10264;53.178;5.840;2022-09-09T00:55:59;13.93;;;11.90;;
20209;SDS011;10264;53.178;5.840;2022-09-09T00:58:26;14.90;;;12.10;;
20209;SDS011;10264;53.178;5.840;2022-09-09T01:00:57;19.17;;;11.93;;
20209;SDS011;10264;53.178;5.840;2022-09-09T01:14:48;13.23;;;11.83;;
20209;SDS011;10264;53.178;5.840;2022-09-09T01:17:26;15.93;;;11.13;;
20209;SDS011;10264;53.178;5.840;2022-09-09T01:28:08;14.67;;;11.53;;
20209;SDS011;10264;53.178;5.840;2022-09-09T01:30:38;14.47;;;12.20;;
20209;SDS011;10264;53.178;5.840;2022-09-09T01:33:07;17.67;;;13.77;;
20209;SDS011;10264;53.178;5.840;2022-09-09T01:38:13;15.70;;;11.70;;
20209;SDS011;10264;53.178;5.840;2022-09-09T01:40:41;15.60;;;11.17;;
20209;SDS011;10264;53.178;5.840;2022-09-09T01:43:08;12.83;;;11.43;;
20209;SDS011;10264;53.178;5.840;2022-09-09T01:45:35;15.33;;;12.00;;
20209;SDS011;10264;53.178;5.840;2022-09-09T01:48:02;16.47;;;12.10;;
20209;SDS011;10264;53.178;5.840;2022-09-09T01:50:29;13.20;;;11.00;;
20209;SDS011;10264;53.178;5.840;2022-09-09T01:52:56;15.00;;;11.97;;
20209;SDS011;10264;53.178;5.840;2022-09-09T01:55:28;14.50;;;11.03;;
20209;SDS011;10264;53.178;5.840;2022-09-09T02:00:56;18.83;;;11.53;;
20209;SDS011;10264;53.178;5.840;2022-09-09T02:03:31;16.43;;;11.80;;
20209;SDS011;10264;53.178;5.840;2022-09-09T02:06:08;20.77;;;13.27;;
20209;SDS011;10264;53.178;5.840;2022-09-09T02:11:16;14.07;;;11.63;;
20209;SDS011;10264;53.178;5.840;2022-09-09T02:13:45;14.70;;;11.90;;
20209;SDS011;10264;53.178;5.840;2022-09-09T02:21:37;14.73;;;12.33;;
20209;SDS011;10264;53.178;5.840;2022-09-09T02:24:06;16.90;;;11.57;;
20209;SDS011;10264;53.178;5.840;2022-09-09T02:26:34;15.83;;;11.57;;
20209;SDS011;10264;53.178;5.840;2022-09-09T02:29:05;13.63;;;12.23;;
20209;SDS011;10264;53.178;5.840;2022-09-09T02:31:35;12.83;;;11.63;;
20209;SDS011;10264;53.178;5.840;2022-09-09T02:34:03;15.77;;;11.83;;
20209;SDS011;10264;53.178;5.840;2022-09-09T02:36:33;15.63;;;11.53;;
20209;SDS011;10264;53.178;5.840;2022-09-09T02:39:01;17.60;;;11.17;;
20209;SDS011;10264;53.178;5.840;2022-09-09T02:41:36;13.27;;;10.67;;
20209;SDS011;10264;53.178;5.840;2022-09-09T02:44:05;17.63;;;11.30;;
20209;SDS011;10264;53.178;5.840;2022-09-09T02:46:41;13.37;;;11.20;;
20209;SDS011;10264;53.178;5.840;2022-09-09T02:52:14;17.80;;;11.07;;
20209;SDS011;10264;53.178;5.840;2022-09-09T02:54:43;12.20;;;10.27;;
20209;SDS011;10264;53.178;5.840;2022-09-09T02:57:28;16.87;;;11.20;;
20209;SDS011;10264;53.178;5.840;2022-09-09T02:59:57;15.43;;;12.50;;
20209;SDS011;10264;53.178;5.840;2022-09-09T03:02:24;13.87;;;11.43;;
20209;SDS011;10264;53.178;5.840;2022-09-09T03:04:51;12.80;;;11.50;;
20209;SDS011;10264;53.178;5.840;2022-09-09T03:07:18;13.70;;;11.37;;
20209;SDS011;10264;53.178;5.840;2022-09-09T03:09:45;15.00;;;11.97;;
20209;SDS011;10264;53.178;5.840;2022-09-09T03:12:12;14.57;;;12.87;;
20209;SDS011;10264;53.178;5.840;2022-09-09T03:14:39;19.57;;;13.40;;
20209;SDS011;10264;53.178;5.840;2022-09-09T03:17:05;21.00;;;13.43;;
20209;SDS011;10264;53.178;5.840;2022-09-09T03:19:32;18.70;;;13.37;;
20209;SDS011;10264;53.178;5.840;2022-09-09T03:21:58;16.63;;;13.27;;
20209;SDS011;10264;53.178;5.840;2022-09-09T03:24:25;17.70;;;13.57;;
20209;SDS011;10264;53.178;5.840;2022-09-09T03:26:51;20.53;;;13.77;;
20209;SDS011;10264;53.178;5.840;2022-09-09T03:29:17;17.20;;;14.10;;
20209;SDS011;10264;53.178;5.840;2022-09-09T03:31:44;17.03;;;13.90;;
20209;SDS011;10264;53.178;5.840;2022-09-09T03:34:10;16.40;;;13.23;;
20209;SDS011;10264;53.178;5.840;2022-09-09T03:36:37;18.43;;;13.87;;
20209;SDS011;10264;53.178;5.840;2022-09-09T03:39:03;18.93;;;12.97;;
20209;SDS011;10264;53.178;5.840;2022-09-09T03:41:30;16.77;;;12.33;;
20209;SDS011;10264;53.178;5.840;2022-09-09T03:43:57;14.53;;;12.33;;
20209;SDS011;10264;53.178;5.840;2022-09-09T03:46:24;17.87;;;12.43;;
20209;SDS011;10264;53.178;5.840;2022-09-09T03:48:51;14.47;;;11.60;;
20209;SDS011;10264;53.178;5.840;2022-09-09T03:51:17;16.80;;;11.60;;
20209;SDS011;10264;53.178;5.840;2022-09-09T03:53:44;15.33;;;11.37;;
20209;SDS011;10264;53.178;5.840;2022-09-09T03:56:11;17.83;;;11.30;;
20209;SDS011;10264;53.178;5.840;2022-09-09T03:58:37;15.07;;;11.17;;
20209;SDS011;10264;53.178;5.840;2022-09-09T04:03:40;11.70;;;9.63;;
20209;SDS011;10264;53.178;5.840;2022-09-09T04:06:07;13.97;;;10.07;;
20209;SDS011;10264;53.178;5.840;2022-09-09T04:08:35;13.83;;;10.13;;
20209;SDS011;10264;53.178;5.840;2022-09-09T04:11:02;11.87;;;10.57;;
20209;SDS011;10264;53.178;5.840;2022-09-09T04:13:28;13.67;;;9.47;;
20209;SDS011;10264;53.178;5.840;2022-09-09T04:15:56;13.33;;;8.53;;
20209;SDS011;10264;53.178;5.840;2022-09-09T04:18:24;11.00;;;9.00;;
20209;SDS011;10264;53.178;5.840;2022-09-09T04:20:52;10.73;;;9.07;;
20209;SDS011;10264;53.178;5.840;2022-09-09T04:23:19;13.27;;;9.50;;
20209;SDS011;10264;53.178;5.840;2022-09-09T04:25:49;15.10;;;9.63;;
20209;SDS011;10264;53.178;5.840;2022-09-09T04:28:17;13.43;;;10.00;;
20209;SDS011;10264;53.178;5.840;2022-09-09T04:30:45;14.87;;;9.87;;
20209;SDS011;10264;53.178;5.840;2022-09-09T04:33:13;12.10;;;10.13;;
20209;SDS011;10264;53.178;5.840;2022-09-09T04:35:44;14.67;;;10.30;;
20209;SDS011;10264;53.178;5.840;2022-09-09T04:38:12;15.53;;;10.53;;
20209;SDS011;10264;53.178;5.840;2022-09-09T04:40:38;16.47;;;11.07;;
20209;SDS011;10264;53.178;5.840;2022-09-09T04:43:05;14.60;;;10.73;;
20209;SDS011;10264;53.178;5.840;2022-09-09T04:45:31;20.37;;;11.87;;
20209;SDS011;10264;53.178;5.840;2022-09-09T04:47:57;16.77;;;11.87;;
20209;SDS011;10264;53.178;5.840;2022-09-09T04:50:24;16.87;;;12.23;;
20209;SDS011;10264;53.178;5.840;2022-09-09T04:52:50;15.53;;;11.63;;
20209;SDS011;10264;53.178;5.840;2022-09-09T04:55:17;16.13;;;11.97;;
20209;SDS011;10264;53.178;5.840;2022-09-09T04:57:43;18.57;;;11.23;;
20209;SDS011;10264;53.178;5.840;2022-09-09T05:00:10;17.67;;;11.20;;
20209;SDS011;10264;53.178;5.840;2022-09-09T05:02:37;17.90;;;11.60;;
20209;SDS011;10264;53.178;5.840;2022-09-09T05:05:04;15.20;;;11.10;;
20209;SDS011;10264;53.178;5.840;2022-09-09T05:07:31;17.10;;;11.77;;
20209;SDS011;10264;53.178;5.840;2022-09-09T05:09:58;23.00;;;12.30;;
20209;SDS011;10264;53.178;5.840;2022-09-09T05:12:24;18.33;;;11.27;;
20209;SDS011;10264;53.178;5.840;2022-09-09T05:14:51;18.20;;;11.43;;
20209;SDS011;10264;53.178;5.840;2022-09-09T05:17:18;17.43;;;11.57;;
20209;SDS011;10264;53.178;5.840;2022-09-09T05:19:44;20.17;;;12.20;;
20209;SDS011;10264;53.178;5.840;2022-09-09T05:22:10;19.67;;;11.67;;
20209;SDS011;10264;53.178;5.840;2022-09-09T05:24:37;16.67;;;11.63;;
20209;SDS011;10264;53.178;5.840;2022-09-09T05:27:04;19.33;;;12.50;;
20209;SDS011;10264;53.178;5.840;2022-09-09T05:29:31;17.37;;;11.37;;
20209;SDS011;10264;53.178;5.840;2022-09-09T05:31:58;18.60;;;12.07;;
20209;SDS011;10264;53.178;5.840;2022-09-09T05:34:25;20.67;;;12.40;;
20209;SDS011;10264;53.178;5.840;2022-09-09T05:36:51;21.03;;;13.50;;
20209;SDS011;10264;53.178;5.840;2022-09-09T05:39:18;23.03;;;14.83;;
20209;SDS011;10264;53.178;5.840;2022-09-09T05:41:44;20.50;;;13.80;;
20209;SDS011;10264;53.178;5.840;2022-09-09T05:44:11;22.30;;;14.47;;
20209;SDS011;10264;53.178;5.840;2022-09-09T05:46:37;23.63;;;14.93;;
20209;SDS011;10264;53.178;5.840;2022-09-09T05:49:04;24.20;;;14.80;;
20209;SDS011;10264;53.178;5.840;2022-09-09T05:51:30;22.27;;;15.07;;
20209;SDS011;10264;53.178;5.840;2022-09-09T05:53:57;21.53;;;15.10;;
20209;SDS011;10264;53.178;5.840;2022-09-09T05:56:25;21.97;;;15.63;;
20209;SDS011;10264;53.178;5.840;2022-09-09T05:58:53;22.30;;;15.07;;
20209;SDS011;10264;53.178;5.840;2022-09-09T06:01:24;24.70;;;15.50;;
20209;SDS011;10264;53.178;5.840;2022-09-09T06:03:56;20.77;;;15.67;;
20209;SDS011;10264;53.178;5.840;2022-09-09T06:06:23;25.20;;;15.30;;
20209;SDS011;10264;53.178;5.840;2022-09-09T06:08:53;24.87;;;15.30;;
20209;SDS011;10264;53.178;5.840;2022-09-09T06:11:22;23.47;;;16.30;;
20209;SDS011;10264;53.178;5.840;2022-09-09T06:13:50;23.33;;;16.67;;
20209;SDS011;10264;53.178;5.840;2022-09-09T06:16:18;25.37;;;17.00;;
20209;SDS011;10264;53.178;5.840;2022-09-09T06:18:45;20.33;;;16.87;;
20209;SDS011;10264;53.178;5.840;2022-09-09T06:21:16;23.27;;;16.63;;
20209;SDS011;10264;53.178;5.840;2022-09-09T06:23:44;21.37;;;15.63;;
20209;SDS011;10264;53.178;5.840;2022-09-09T06:26:12;20.63;;;15.73;;
20209;SDS011;10264;53.178;5.840;2022-09-09T06:28:42;20.40;;;15.17;;
20209;SDS011;10264;53.178;5.840;2022-09-09T06:31:10;18.93;;;15.70;;
20209;SDS011;10264;53.178;5.840;2022-09-09T06:33:38;22.07;;;16.53;;
20209;SDS011;10264;53.178;5.840;2022-09-09T06:36:16;22.53;;;15.10;;
20209;SDS011;10264;53.178;5.840;2022-09-09T06:38:44;22.23;;;15.37;;
20209;SDS011;10264;53.178;5.840;2022-09-09T06:41:11;20.17;;;15.17;;
20209;SDS011;10264;53.178;5.840;2022-09-09T06:43:39;20.77;;;15.17;;
20209;SDS011;10264;53.178;5.840;2022-09-09T06:46:06;17.97;;;14.97;;
20209;SDS011;10264;53.178;5.840;2022-09-09T06:48:36;17.80;;;15.53;;
20209;SDS011;10264;53.178;5.840;2022-09-09T06:53:35;20.37;;;14.63;;
20209;SDS011;10264;53.178;5.840;2022-09-09T06:56:17;19.30;;;14.43;;
20209;SDS011;10264;53.178;5.840;2022-09-09T06:58:49;18.90;;;14.83;;
20209;SDS011;10264;53.178;5.840;2022-09-09T07:01:18;15.63;;;13.67;;
20209;SDS011;10264;53.178;5.840;2022-09-09T07:03:47;19.90;;;14.20;;
20209;SDS011;10264;53.178;5.840;2022-09-09T07:06:16;19.23;;;14.17;;
20209;SDS011;10264;53.178;5.840;2022-09-09T07:08:57;15.70;;;12.33;;
20209;SDS011;10264;53.178;5.840;2022-09-09T07:11:26;16.03;;;11.87;;
20209;SDS011;10264;53.178;5.840;2022-09-09T07:13:57;14.63;;;11.60;;
20209;SDS011;10264;53.178;5.840;2022-09-09T07:16:25;14.97;;;11.87;;
20209;SDS011;10264;53.178;5.840;2022-09-09T07:18:52;14.33;;;11.67;;
20209;SDS011;10264;53.178;5.840;2022-09-09T07:21:19;13.23;;;11.10;;
20209;SDS011;10264;53.178;5.840;2022-09-09T07:23:46;11.87;;;9.87;;
20209;SDS011;10264;53.178;5.840;2022-09-09T07:26:14;12.50;;;9.50;;
20209;SDS011;10264;53.178;5.840;2022-09-09T07:28:42;9.43;;;8.53;;
20209;SDS011;10264;53.178;5.840;2022-09-09T07:31:12;13.07;;;9.57;;
20209;SDS011;10264;53.178;5.840;2022-09-09T07:33:41;13.17;;;8.30;;
20209;SDS011;10264;53.178;5.840;2022-09-09T07:38:40;8.33;;;7.07;;
20209;SDS011;10264;53.178;5.840;2022-09-09T07:41:18;8.07;;;7.20;;
20209;SDS011;10264;53.178;5.840;2022-09-09T07:43:50;9.40;;;8.10;;
20209;SDS011;10264;53.178;5.840;2022-09-09T07:46:18;10.80;;;6.73;;
20209;SDS011;10264;53.178;5.840;2022-09-09T07:48:48;8.43;;;6.40;;
20209;SDS011;10264;53.178;5.840;2022-09-09T07:51:23;7.60;;;6.57;;
20209;SDS011;10264;53.178;5.840;2022-09-09T07:54:10;7.53;;;6.73;;
20209;SDS011;10264;53.178;5.840;2022-09-09T07:56:39;8.90;;;6.77;;
20209;SDS011;10264;53.178;5.840;2022-09-09T07:59:06;7.77;;;7.00;;
20209;SDS011;10264;53.178;5.840;2022-09-09T08:01:34;9.27;;;6.87;;
20209;SDS011;10264;53.178;5.840;2022-09-09T08:04:04;9.23;;;7.03;;
20209;SDS011;10264;53.178;5.840;2022-09-09T08:06:33;8.57;;;6.60;;
20209;SDS011;10264;53.178;5.840;2022-09-09T08:09:03;10.23;;;7.00;;
20209;SDS011;10264;53.178;5.840;2022-09-09T08:11:30;8.97;;;6.90;;
20209;SDS011;10264;53.178;5.840;2022-09-09T08:14:03;10.30;;;6.33;;
20209;SDS011;10264;53.178;5.840;2022-09-09T08:16:32;7.07;;;6.30;;
20209;SDS011;10264;53.178;5.840;2022-09-09T08:18:59;7.17;;;6.50;;
20209;SDS011;10264;53.178;5.840;2022-09-09T08:21:26;9.90;;;6.23;;
20209;SDS011;10264;53.178;5.840;2022-09-09T08:23:55;7.73;;;5.57;;
20209;SDS011;10264;53.178;5.840;2022-09-09T08:26:34;6.50;;;5.60;;
20209;SDS011;10264;53.178;5.840;2022-09-09T08:29:05;7.90;;;5.33;;
20209;SDS011;10264;53.178;5.840;2022-09-09T08:31:36;7.30;;;5.30;;
20209;SDS011;10264;53.178;5.840;2022-09-09T08:34:04;5.87;;;5.17;;
20209;SDS011;10264;53.178;5.840;2022-09-09T08:36:33;6.13;;;4.97;;
20209;SDS011;10264;53.178;5.840;2022-09-09T08:39:03;4.93;;;4.53;;
20209;SDS011;10264;53.178;5.840;2022-09-09T08:50:06;6.93;;;4.80;;
20209;SDS011;10264;53.178;5.840;2022-09-09T08:53:04;6.13;;;4.90;;
20209;SDS011;10264;53.178;5.840;2022-09-09T08:58:14;5.73;;;4.60;;
20209;SDS011;10264;53.178;5.840;2022-09-09T09:12:22;6.83;;;4.20;;
20209;SDS011;10264;53.178;5.840;2022-09-09T09:14:50;6.33;;;3.50;;
20209;SDS011;10264;53.178;5.840;2022-09-09T09:17:18;9.77;;;3.83;;
20209;SDS011;10264;53.178;5.840;2022-09-09T09:19:47;6.70;;;3.90;;
20209;SDS011;10264;53.178;5.840;2022-09-09T09:22:36;8.83;;;3.90;;
20209;SDS011;10264;53.178;5.840;2022-09-09T09:25:24;9.60;;;4.43;;
20209;SDS011;10264;53.178;5.840;2022-09-09T09:28:01;7.13;;;4.03;;
20209;SDS011;10264;53.178;5.840;2022-09-09T09:30:50;10.40;;;4.27;;
20209;SDS011;10264;53.178;5.840;2022-09-09T09:33:22;7.83;;;3.90;;
20209;SDS011;10264;53.178;5.840;2022-09-09T09:35:54;8.17;;;3.53;;
20209;SDS011;10264;53.178;5.840;2022-09-09T09:38:22;11.33;;;4.13;;
20209;SDS011;10264;53.178;5.840;2022-09-09T09:41:10;8.73;;;4.10;;
20209;SDS011;10264;53.178;5.840;2022-09-09T09:43:37;5.83;;;3.40;;
20209;SDS011;10264;53.178;5.840;2022-09-09T09:46:18;8.13;;;3.57;;
20209;SDS011;10264;53.178;5.840;2022-09-09T09:48:56;9.23;;;3.47;;
20209;SDS011;10264;53.178;5.840;2022-09-09T09:51:26;10.83;;;3.77;;
20209;SDS011;10264;53.178;5.840;2022-09-09T09:54:03;6.77;;;3.00;;
20209;SDS011;10264;53.178;5.840;2022-09-09T09:56:31;7.63;;;3.30;;
20209;SDS011;10264;53.178;5.840;2022-09-09T09:58:58;6.80;;;2.60;;
20209;SDS011;10264;53.178;5.840;2022-09-09T10:01:28;7.90;;;2.50;;
20209;SDS011;10264;53.178;5.840;2022-09-09T10:03:57;8.40;;;2.77;;
20209;SDS011;10264;53.178;5.840;2022-09-09T10:06:33;6.27;;;2.43;;
20209;SDS011;10264;53.178;5.840;2022-09-09T10:09:01;6.80;;;2.83;;
20209;SDS011;10264;53.178;5.840;2022-09-09T10:11:35;5.00;;;2.60;;
20209;SDS011;10264;53.178;5.840;2022-09-09T10:14:19;4.50;;;1.90;;
20209;SDS011;10264;53.178;5.840;2022-09-09T10:19:35;6.63;;;2.30;;
20209;SDS011;10264;53.178;5.840;2022-09-09T10:22:24;5.57;;;2.27;;
20209;SDS011;10264;53.178;5.840;2022-09-09T10:25:14;8.80;;;2.37;;
20209;SDS011;10264;53.178;5.840;2022-09-09T10:28:04;4.87;;;2.00;;
20209;SDS011;10264;53.178;5.840;2022-09-09T10:30:39;5.63;;;2.20;;
20209;SDS011;10264;53.178;5.840;2022-09-09T10:33:10;7.57;;;2.33;;
20209;SDS011;10264;53.178;5.840;2022-09-09T10:36:13;5.37;;;2.00;;
20209;SDS011;10264;53.178;5.840;2022-09-09T10:38:45;6.70;;;1.90;;
20209;SDS011;10264;53.178;5.840;2022-09-09T10:49:15;7.47;;;2.63;;
20209;SDS011;10264;53.178;5.840;2022-09-09T11:00:23;5.70;;;2.27;;
20209;SDS011;10264;53.178;5.840;2022-09-09T11:02:51;3.60;;;1.90;;
20209;SDS011;10264;53.178;5.840;2022-09-09T11:05:43;5.70;;;1.93;;
20209;SDS011;10264;53.178;5.840;2022-09-09T11:08:19;4.53;;;2.00;;
20209;SDS011;10264;53.178;5.840;2022-09-09T11:13:26;4.60;;;1.97;;
20209;SDS011;10264;53.178;5.840;2022-09-09T11:18:45;5.13;;;1.93;;
20209;SDS011;10264;53.178;5.840;2022-09-09T11:21:17;4.87;;;1.87;;
20209;SDS011;10264;53.178;5.840;2022-09-09T11:23:51;5.43;;;1.80;;
20209;SDS011;10264;53.178;5.840;2022-09-09T11:26:32;4.67;;;2.33;;
20209;SDS011;10264;53.178;5.840;2022-09-09T11:34:50;4.03;;;1.90;;
20209;SDS011;10264;53.178;5.840;2022-09-09T11:40:24;5.30;;;1.97;;
20209;SDS011;10264;53.178;5.840;2022-09-09T11:43:09;7.10;;;2.17;;
20209;SDS011;10264;53.178;5.840;2022-09-09T11:45:39;6.33;;;2.23;;
20209;SDS011;10264;53.178;5.840;2022-09-09T11:48:22;6.33;;;2.20;;
20209;SDS011;10264;53.178;5.840;2022-09-09T11:51:02;5.93;;;2.30;;
20209;SDS011;10264;53.178;5.840;2022-09-09T11:53:31;7.17;;;2.80;;
20209;SDS011;10264;53.178;5.840;2022-09-09T11:56:11;7.77;;;1.93;;
20209;SDS011;10264;53.178;5.840;2022-09-09T11:58:41;5.47;;;2.10;;
20209;SDS011;10264;53.178;5.840;2022-09-09T12:01:30;7.27;;;3.70;;
20209;SDS011;10264;53.178;5.840;2022-09-09T12:04:14;6.57;;;2.67;;
20209;SDS011;10264;53.178;5.840;2022-09-09T12:07:04;6.83;;;1.90;;
20209;SDS011;10264;53.178;5.840;2022-09-09T12:09:51;5.37;;;2.30;;
20209;SDS011;10264;53.178;5.840;2022-09-09T12:12:33;5.27;;;2.00;;
20209;SDS011;10264;53.178;5.840;2022-09-09T12:17:43;10.93;;;2.50;;
20209;SDS011;10264;53.178;5.840;2022-09-09T12:28:41;8.50;;;2.30;;
20209;SDS011;10264;53.178;5.840;2022-09-09T12:31:22;7.73;;;2.40;;
20209;SDS011;10264;53.178;5.840;2022-09-09T12:37:12;6.90;;;2.10;;
20209;SDS011;10264;53.178;5.840;2022-09-09T12:39:47;6.43;;;2.57;;
20209;SDS011;10264;53.178;5.840;2022-09-09T12:42:21;7.97;;;2.57;;
20209;SDS011;10264;53.178;5.840;2022-09-09T12:44:56;6.80;;;2.60;;
20209;SDS011;10264;53.178;5.840;2022-09-09T12:47:40;6.33;;;2.60;;
20209;SDS011;10264;53.178;5.840;2022-09-09T12:50:15;6.60;;;2.10;;
20209;SDS011;10264;53.178;5.840;2022-09-09T12:52:43;10.30;;;2.53;;
20209;SDS011;10264;53.178;5.840;2022-09-09T12:55:20;3.97;;;2.07;;
20209;SDS011;10264;53.178;5.840;2022-09-09T12:57:49;5.63;;;2.10;;
20209;SDS011;10264;53.178;5.840;2022-09-09T13:00:24;4.47;;;2.20;;
20209;SDS011;10264;53.178;5.840;2022-09-09T13:02:58;5.53;;;2.13;;
20209;SDS011;10264;53.178;5.840;2022-09-09T13:05:27;7.87;;;2.50;;
20209;SDS011;10264;53.178;5.840;2022-09-09T13:08:04;7.17;;;2.00;;
20209;SDS011;10264;53.178;5.840;2022-09-09T13:10:56;5.83;;;2.27;;
20209;SDS011;10264;53.178;5.840;2022-09-09T13:13:29;6.67;;;2.00;;
20209;SDS011;10264;53.178;5.840;2022-09-09T13:16:18;6.23;;;2.07;;
20209;SDS011;10264;53.178;5.840;2022-09-09T13:18:48;6.03;;;2.00;;
20209;SDS011;10264;53.178;5.840;2022-09-09T13:21:15;4.83;;;1.80;;
20209;SDS011;10264;53.178;5.840;2022-09-09T13:23:41;4.03;;;1.90;;
20209;SDS011;10264;53.178;5.840;2022-09-09T13:26:21;4.90;;;1.70;;
20209;SDS011;10264;53.178;5.840;2022-09-09T13:28:50;4.20;;;1.80;;
20209;SDS011;10264;53.178;5.840;2022-09-09T13:31:24;3.60;;;1.43;;
20209;SDS011;10264;53.178;5.840;2022-09-09T13:33:55;6.63;;;2.10;;
20209;SDS011;10264;53.178;5.840;2022-09-09T13:36:31;4.47;;;1.70;;
20209;SDS011;10264;53.178;5.840;2022-09-09T13:39:00;8.10;;;2.10;;
20209;SDS011;10264;53.178;5.840;2022-09-09T13:41:31;7.40;;;2.03;;
20209;SDS011;10264;53.178;5.840;2022-09-09T13:43:59;5.07;;;1.70;;
20209;SDS011;10264;53.178;5.840;2022-09-09T13:46:34;1.83;;;1.30;;
20209;SDS011;10264;53.178;5.840;2022-09-09T13:51:42;6.43;;;2.20;;
20209;SDS011;10264;53.178;5.840;2022-09-09T13:54:11;4.37;;;2.27;;
20209;SDS011;10264;53.178;5.840;2022-09-09T13:56:40;3.40;;;2.40;;
20209;SDS011;10264;53.178;5.840;2022-09-09T13:59:12;4.07;;;2.30;;
20209;SDS011;10264;53.178;5.840;2022-09-09T14:01:44;5.97;;;2.53;;
20209;SDS011;10264;53.178;5.840;2022-09-09T14:04:10;4.83;;;2.63;;
20209;SDS011;10264;53.178;5.840;2022-09-09T14:06:37;7.20;;;2.40;;
20209;SDS011;10264;53.178;5.840;2022-09-09T14:09:05;6.43;;;2.13;;
20209;SDS011;10264;53.178;5.840;2022-09-09T14:11:33;3.57;;;1.90;;
20209;SDS011;10264;53.178;5.840;2022-09-09T14:13:59;5.47;;;2.20;;
20209;SDS011;10264;53.178;5.840;2022-09-09T14:16:26;3.63;;;2.00;;
20209;SDS011;10264;53.178;5.840;2022-09-09T14:18:53;4.17;;;2.20;;
20209;SDS011;10264;53.178;5.840;2022-09-09T14:21:19;6.03;;;2.00;;
20209;SDS011;10264;53.178;5.840;2022-09-09T14:23:46;3.67;;;2.20;;
20209;SDS011;10264;53.178;5.840;2022-09-09T14:26:12;6.13;;;1.97;;
20209;SDS011;10264;53.178;5.840;2022-09-09T14:28:39;4.43;;;2.07;;
20209;SDS011;10264;53.178;5.840;2022-09-09T14:31:20;4.20;;;2.10;;
20209;SDS011;10264;53.178;5.840;2022-09-09T14:33:47;2.27;;;1.77;;
20209;SDS011;10264;53.178;5.840;2022-09-09T14:36:13;5.00;;;2.00;;
20209;SDS011;10264;53.178;5.840;2022-09-09T14:38:40;4.27;;;1.97;;
20209;SDS011;10264;53.178;5.840;2022-09-09T14:41:07;4.73;;;1.90;;
20209;SDS011;10264;53.178;5.840;2022-09-09T14:43:39;3.80;;;1.90;;
20209;SDS011;10264;53.178;5.840;2022-09-09T14:46:09;3.60;;;1.50;;
20209;SDS011;10264;53.178;5.840;2022-09-09T14:48:38;4.50;;;2.20;;
20209;SDS011;10264;53.178;5.840;2022-09-09T14:51:08;3.97;;;1.90;;
20209;SDS011;10264;53.178;5.840;2022-09-09T14:53:39;5.77;;;2.30;;
20209;SDS011;10264;53.178;5.840;2022-09-09T14:56:07;4.83;;;1.90;;
20209;SDS011;10264;53.178;5.840;2022-09-09T14:58:35;4.57;;;1.90;;
20209;SDS011;10264;53.178;5.840;2022-09-09T15:01:07;6.03;;;2.53;;
20209;SDS011;10264;53.178;5.840;2022-09-09T15:03:39;5.93;;;2.10;;
20209;SDS011;10264;53.178;5.840;2022-09-09T15:06:08;2.87;;;1.90;;
20209;SDS011;10264;53.178;5.840;2022-09-09T15:08:36;5.50;;;2.80;;
20209;SDS011;10264;53.178;5.840;2022-09-09T15:11:08;6.33;;;2.57;;
20209;SDS011;10264;53.178;5.840;2022-09-09T15:13:35;5.07;;;2.50;;
20209;SDS011;10264;53.178;5.840;2022-09-09T15:16:04;8.03;;;2.80;;
20209;SDS011;10264;53.178;5.840;2022-09-09T15:18:32;7.10;;;2.83;;
20209;SDS011;10264;53.178;5.840;2022-09-09T15:20:59;15.90;;;3.53;;
20209;SDS011;10264;53.178;5.840;2022-09-09T15:23:26;6.97;;;5.07;;
20209;SDS011;10264;53.178;5.840;2022-09-09T15:25:53;7.27;;;4.30;;
20209;SDS011;10264;53.178;5.840;2022-09-09T15:28:20;5.20;;;4.70;;
20209;SDS011;10264;53.178;5.840;2022-09-09T15:30:48;8.80;;;4.63;;
20209;SDS011;10264;53.178;5.840;2022-09-09T15:33:18;5.77;;;4.90;;
20209;SDS011;10264;53.178;5.840;2022-09-09T15:35:46;9.33;;;5.17;;
20209;SDS011;10264;53.178;5.840;2022-09-09T15:38:12;7.73;;;5.70;;
20209;SDS011;10264;53.178;5.840;2022-09-09T15:40:39;6.93;;;4.80;;
20209;SDS011;10264;53.178;5.840;2022-09-09T15:43:06;8.83;;;5.97;;
20209;SDS011;10264;53.178;5.840;2022-09-09T15:45:33;8.40;;;5.57;;
20209;SDS011;10264;53.178;5.840;2022-09-09T15:48:00;10.03;;;5.60;;
20209;SDS011;10264;53.178;5.840;2022-09-09T15:50:27;9.77;;;5.83;;
20209;SDS011;10264;53.178;5.840;2022-09-09T15:52:54;7.60;;;5.53;;
20209;SDS011;10264;53.178;5.840;2022-09-09T15:55:20;9.50;;;5.33;;
20209;SDS011;10264;53.178;5.840;2022-09-09T15:57:47;8.27;;;5.47;;
20209;SDS011;10264;53.178;5.840;2022-09-09T16:00:13;8.47;;;5.33;;
20209;SDS011;10264;53.178;5.840;2022-09-09T16:02:40;6.33;;;5.10;;
20209;SDS011;10264;53.178;5.840;2022-09-09T16:05:06;7.03;;;4.60;;
20209;SDS011;10264;53.178;5.840;2022-09-09T16:07:33;5.20;;;4.47;;
20209;SDS011;10264;53.178;5.840;2022-09-09T16:09:59;7.57;;;4.07;;
20209;SDS011;10264;53.178;5.840;2022-09-09T16:12:26;5.07;;;4.53;;
20209;SDS011;10264;53.178;5.840;2022-09-09T16:14:52;5.60;;;3.60;;
20209;SDS011;10264;53.178;5.840;2022-09-09T16:17:19;5.67;;;3.70;;
20209;SDS011;10264;53.178;5.840;2022-09-09T16:19:45;4.77;;;3.70;;
20209;SDS011;10264;53.178;5.840;2022-09-09T16:22:12;4.00;;;3.67;;
20209;SDS011;10264;53.178;5.840;2022-09-09T16:24:38;4.70;;;3.50;;
20209;SDS011;10264;53.178;5.840;2022-09-09T16:27:05;6.80;;;3.80;;
20209;SDS011;10264;53.178;5.840;2022-09-09T16:29:31;4.80;;;3.70;;
20209;SDS011;10264;53.178;5.840;2022-09-09T16:31:57;5.70;;;3.47;;
20209;SDS011;10264;53.178;5.840;2022-09-09T16:34:29;4.77;;;3.60;;
20209;SDS011;10264;53.178;5.840;2022-09-09T16:36:55;4.37;;;3.47;;
20209;SDS011;10264;53.178;5.840;2022-09-09T16:39:22;6.60;;;4.00;;
20209;SDS011;10264;53.178;5.840;2022-09-09T16:41:49;6.53;;;4.30;;
20209;SDS011;10264;53.178;5.840;2022-09-09T16:44:16;4.40;;;4.00;;
20209;SDS011;10264;53.178;5.840;2022-09-09T16:46:45;6.80;;;4.20;;
20209;SDS011;10264;53.178;5.840;2022-09-09T16:49:13;5.57;;;4.03;;
20209;SDS011;10264;53.178;5.840;2022-09-09T16:51:40;4.50;;;3.77;;
20209;SDS011;10264;53.178;5.840;2022-09-09T16:54:11;6.37;;;3.90;;
20209;SDS011;10264;53.178;5.840;2022-09-09T16:56:38;4.97;;;4.10;;
20209;SDS011;10264;53.178;5.840;2022-09-09T16:59:07;4.80;;;4.27;;
20209;SDS011;10264;53.178;5.840;2022-09-09T17:01:37;7.67;;;4.33;;
20209;SDS011;10264;53.178;5.840;2022-09-09T17:04:05;8.03;;;4.73;;
20209;SDS011;10264;53.178;5.840;2022-09-09T17:06:34;6.63;;;4.57;;
20209;SDS011;10264;53.178;5.840;2022-09-09T17:09:03;5.43;;;4.57;;
20209;SDS011;10264;53.178;5.840;2022-09-09T17:11:33;5.43;;;4.67;;
20209;SDS011;10264;53.178;5.840;2022-09-09T17:14:00;4.03;;;2.90;;
20209;SDS011;10264;53.178;5.840;2022-09-09T17:16:28;3.00;;;1.93;;
20209;SDS011;10264;53.178;5.840;2022-09-09T17:18:56;3.37;;;1.90;;
20209;SDS011;10264;53.178;5.840;2022-09-09T17:21:24;1.83;;;1.47;;
20209;SDS011;10264;53.178;5.840;2022-09-09T17:23:52;1.87;;;1.50;;